Airfield :







YOU CAN JOIN US ON...

 
LOGIN :

Register | Disclaimer

   EN    FR    IT 

 









Legend :    VFR   Marginal VFR   IFR   Intensive IFR   Very Intensive IFR
Visi :
Ceiling :
>= 8 km
>= 3000ft
5 to 8 km
1000 to 3000 ft
1500m to 5 km
500 to 1000 ft
800 to 1500m
200 to 500 ft
< 800m
< 200 ft
Symbols :   Thunderstorms  Fog  Heavy snow  Heavy precipitations  Wind > 20 kt






- Airport Elevation : 522 ft
- IATA code : YBG


CYBG - CFB Bagotville

CURRENT METAR :
  • 281100Z 15003KT 25SM BKN065 BKN250 14/13 A2984 RMK SC6CI2 SLP105

EXPIRED METARs :
  • 281000Z 09004KT 25SM FEW040 BKN055 BKN250 14/13 A2982 RMK SC2SC2CI2 SLP100

TAF TAF CYBG
Valid from the 28 at 12:00 until the 29 at 12:00 UTC


281130Z 2812/2912 VRB03KT P6SM FEW040 BKN050 BKN250
BECMG 2815/2817 25008KT
FM281800 25008KT P6SM BKN030 OVC210
TEMPO 2818/2909 P6SM -SHRA
BECMG 2823/2901 10008KT RMK NXT FCST BY 281500Z
CZUL FIR / North America



MET'MAP, your aeronautical weather chart ! - Copyright ORBIFLY December 2007 - Disclaimer

ORBIFLY MET'MAP TEAM :

Programming & Development : Alexandra Zaïnal
Concept & original design : Baudouin d'Aumeries
Assistance for programming : Marc-Olivier Méhu
Technical & hardware support : Manuel Goepfert

Contact : metmap@orbifly.com




SOURCES & CREDITS :

   NOAA